createdAt,value
2022-09-25T00:00:58.145Z,9.07
2022-09-25T00:03:27.612Z,8.80
2022-09-25T00:06:04.972Z,8.82
2022-09-25T00:08:32.250Z,8.43
2022-09-25T00:10:59.195Z,8.73
2022-09-25T00:13:27.460Z,8.63
2022-09-25T00:15:58.176Z,8.10
2022-09-25T00:18:45.038Z,8.38
2022-09-25T00:21:14.696Z,7.85
2022-09-25T00:23:45.134Z,8.13
2022-09-25T00:26:14.081Z,8.63
2022-09-25T00:28:41.893Z,7.95
2022-09-25T00:31:10.264Z,8.10
2022-09-25T00:33:37.561Z,8.57
2022-09-25T00:36:07.417Z,8.30
2022-09-25T00:38:35.956Z,8.85
2022-09-25T00:41:04.240Z,7.95
2022-09-25T00:43:45.719Z,8.68
2022-09-25T00:46:24.355Z,8.10
2022-09-25T00:48:56.426Z,7.45
2022-09-25T00:51:29.785Z,7.60
2022-09-25T00:54:04.715Z,8.93
2022-09-25T00:56:37.976Z,7.95
2022-09-25T00:59:06.049Z,7.85
2022-09-25T01:01:32.909Z,7.88
2022-09-25T01:04:00.177Z,7.95
2022-09-25T01:06:28.182Z,8.15
2022-09-25T01:08:56.579Z,7.63
2022-09-25T01:11:23.389Z,8.05
2022-09-25T01:13:54.465Z,9.65
2022-09-25T01:16:51.116Z,8.70
2022-09-25T01:19:55.829Z,7.93
2022-09-25T01:22:41.303Z,8.25
2022-09-25T01:25:26.585Z,8.30
2022-09-25T01:28:27.198Z,9.45
2022-09-25T01:31:02.117Z,7.88
2022-09-25T01:33:37.191Z,8.32
2022-09-25T01:36:19.748Z,7.82
2022-09-25T01:38:55.686Z,7.82
2022-09-25T01:41:24.412Z,8.38
2022-09-25T01:44:06.256Z,7.00
2022-09-25T01:46:46.539Z,6.90
2022-09-25T01:49:28.398Z,7.90
2022-09-25T01:51:56.717Z,7.15
2022-09-25T01:54:44.283Z,7.55
2022-09-25T01:57:18.648Z,6.68
2022-09-25T02:00:09.819Z,7.03
2022-09-25T02:02:49.642Z,7.15
2022-09-25T02:05:27.252Z,6.68
2022-09-25T02:08:11.431Z,7.15
2022-09-25T02:10:45.189Z,7.18
2022-09-25T02:13:15.704Z,7.47
2022-09-25T02:15:55.872Z,6.50
2022-09-25T02:18:43.450Z,7.65
2022-09-25T02:21:17.368Z,7.05
2022-09-25T02:24:05.820Z,7.60
2022-09-25T02:26:35.129Z,7.78
2022-09-25T02:29:02.574Z,8.75
2022-09-25T02:31:35.858Z,9.02
2022-09-25T02:34:12.139Z,9.05
2022-09-25T02:36:43.056Z,7.95
2022-09-25T02:39:11.893Z,8.70
2022-09-25T02:41:41.378Z,8.82
2022-09-25T02:44:26.802Z,8.77
2022-09-25T02:46:56.398Z,8.60
2022-09-25T02:49:47.166Z,8.63
2022-09-25T02:52:35.539Z,8.90
2022-09-25T02:55:09.674Z,7.97
2022-09-25T02:57:49.396Z,8.00
2022-09-25T03:00:16.858Z,8.55
2022-09-25T03:02:51.373Z,8.18
2022-09-25T03:05:20.882Z,7.10
2022-09-25T03:08:06.319Z,7.43
2022-09-25T03:10:36.848Z,8.63
2022-09-25T03:13:22.506Z,7.45
2022-09-25T03:16:02.414Z,8.13
2022-09-25T03:18:31.335Z,8.20
2022-09-25T03:20:59.004Z,8.45
2022-09-25T03:23:26.362Z,8.70
2022-09-25T03:25:54.754Z,8.20
2022-09-25T03:28:22.766Z,9.40
2022-09-25T03:30:58.340Z,8.95
2022-09-25T03:33:26.936Z,9.25
2022-09-25T03:36:01.072Z,9.18
2022-09-25T03:38:27.834Z,8.65
2022-09-25T03:40:54.568Z,9.13
2022-09-25T03:43:21.359Z,9.60
2022-09-25T03:45:48.389Z,9.52
2022-09-25T03:48:15.170Z,9.63
2022-09-25T03:50:42.063Z,8.40
2022-09-25T03:53:08.788Z,9.75
2022-09-25T03:55:36.134Z,9.77
2022-09-25T03:58:02.841Z,9.90
2022-09-25T04:00:29.559Z,10.43
2022-09-25T04:02:57.865Z,8.63
2022-09-25T04:05:24.860Z,10.52
2022-09-25T04:07:51.801Z,10.20
2022-09-25T04:10:18.487Z,9.50
2022-09-25T04:12:45.167Z,9.60
2022-09-25T04:15:11.900Z,10.32
2022-09-25T04:17:38.578Z,10.75
2022-09-25T04:20:05.581Z,9.27
2022-09-25T04:22:32.302Z,10.43
2022-09-25T04:24:58.979Z,10.27
2022-09-25T04:27:26.762Z,11.30
2022-09-25T04:29:53.449Z,10.27
2022-09-25T04:32:38.924Z,8.05
2022-09-25T04:35:05.977Z,10.13
2022-09-25T04:37:32.719Z,10.23
2022-09-25T04:39:59.463Z,9.23
2022-09-25T04:42:26.207Z,9.68
2022-09-25T04:44:56.565Z,9.10
2022-09-25T04:47:24.908Z,8.15
2022-09-25T04:49:52.635Z,8.80
2022-09-25T04:52:20.446Z,9.73
2022-09-25T04:54:47.828Z,8.13
2022-09-25T04:57:38.884Z,8.35
2022-09-25T05:00:07.211Z,9.05
2022-09-25T05:02:35.233Z,8.73
2022-09-25T05:05:02.096Z,9.30
2022-09-25T05:07:28.947Z,9.50
2022-09-25T05:09:55.822Z,10.23
2022-09-25T05:12:22.522Z,10.07
2022-09-25T05:14:49.263Z,10.57
2022-09-25T05:17:15.950Z,12.48
2022-09-25T05:19:42.678Z,12.52
2022-09-25T05:22:09.376Z,11.48
2022-09-25T05:24:38.609Z,40.15
2022-09-25T05:27:05.385Z,30.95
2022-09-25T05:29:32.326Z,13.65
2022-09-25T05:31:59.633Z,11.07
2022-09-25T05:34:26.944Z,9.95
2022-09-25T05:36:53.666Z,10.30
2022-09-25T05:39:20.447Z,9.93
2022-09-25T05:41:47.147Z,10.38
2022-09-25T05:44:14.973Z,11.07
2022-09-25T05:46:42.281Z,12.18
2022-09-25T05:49:09.231Z,13.98
2022-09-25T05:51:36.050Z,21.10
2022-09-25T05:54:02.813Z,20.17
2022-09-25T05:56:29.606Z,14.82
2022-09-25T05:58:58.550Z,15.65
2022-09-25T06:01:26.203Z,13.63
2022-09-25T06:03:53.074Z,11.23
2022-09-25T06:06:23.803Z,11.63
2022-09-25T06:08:54.732Z,12.15
2022-09-25T06:11:22.511Z,11.38
2022-09-25T06:13:54.184Z,11.32
2022-09-25T06:16:21.518Z,12.38
2022-09-25T06:18:48.619Z,11.85
2022-09-25T06:21:15.593Z,12.20
2022-09-25T06:23:44.964Z,10.55
2022-09-25T06:26:12.651Z,10.38
2022-09-25T06:28:39.687Z,11.10
2022-09-25T06:31:06.604Z,11.13
2022-09-25T06:33:33.541Z,11.07
2022-09-25T06:36:00.851Z,10.27
2022-09-25T06:38:28.112Z,10.95
2022-09-25T06:40:58.754Z,10.77
2022-09-25T06:43:27.262Z,10.93
2022-09-25T06:45:54.137Z,11.02
2022-09-25T06:48:22.342Z,11.10
2022-09-25T06:50:52.543Z,10.60
2022-09-25T06:53:21.329Z,9.32
2022-09-25T06:55:49.463Z,8.85
2022-09-25T06:58:19.664Z,8.43
2022-09-25T07:00:50.868Z,8.40
2022-09-25T07:03:36.423Z,7.50
2022-09-25T07:06:05.549Z,8.27
2022-09-25T07:08:32.699Z,9.00
2022-09-25T07:11:00.067Z,8.23
2022-09-25T07:13:29.934Z,7.63
2022-09-25T07:15:59.010Z,7.78
2022-09-25T07:18:26.983Z,7.50
2022-09-25T07:20:59.271Z,8.10
2022-09-25T07:23:26.129Z,7.60
2022-09-25T07:25:52.924Z,6.93
2022-09-25T07:28:20.244Z,6.85
2022-09-25T07:30:48.646Z,7.22
2022-09-25T07:33:16.646Z,6.63
2022-09-25T07:35:43.449Z,6.47
2022-09-25T07:38:10.359Z,7.28
2022-09-25T07:40:37.251Z,6.57
2022-09-25T07:43:07.384Z,6.20
2022-09-25T07:45:34.284Z,6.10
2022-09-25T07:48:03.165Z,5.53
2022-09-25T07:50:31.846Z,5.93
2022-09-25T07:52:59.063Z,5.68
2022-09-25T07:55:28.698Z,5.38
2022-09-25T07:57:58.629Z,7.38
2022-09-25T08:00:25.435Z,5.95
2022-09-25T08:02:57.448Z,6.50
2022-09-25T08:05:25.182Z,6.07
2022-09-25T08:07:53.308Z,6.55
2022-09-25T08:10:20.625Z,5.88
2022-09-25T08:12:47.383Z,6.00
2022-09-25T08:15:14.920Z,5.10
2022-09-25T08:17:42.814Z,4.60
2022-09-25T08:20:10.395Z,6.03
2022-09-25T08:22:37.309Z,4.40
2022-09-25T08:25:04.220Z,4.85
2022-09-25T08:27:31.962Z,4.88
2022-09-25T08:30:00.183Z,6.25
2022-09-25T08:32:26.958Z,4.45
2022-09-25T08:34:55.298Z,3.45
2022-09-25T08:37:22.122Z,4.63
2022-09-25T08:39:48.890Z,4.38
2022-09-25T08:42:21.227Z,4.10
2022-09-25T08:45:21.149Z,4.00
2022-09-25T08:48:11.815Z,3.38
2022-09-25T08:50:38.613Z,3.10
2022-09-25T08:53:23.989Z,3.97
2022-09-25T08:56:09.949Z,2.70
2022-09-25T08:58:43.279Z,3.33
2022-09-25T09:01:18.468Z,3.58
2022-09-25T09:04:05.701Z,3.47
2022-09-25T09:06:34.380Z,3.50
2022-09-25T09:09:27.475Z,2.88
2022-09-25T09:12:19.696Z,3.58
2022-09-25T09:14:51.032Z,3.30
2022-09-25T09:17:24.124Z,2.63
2022-09-25T09:19:59.671Z,2.80
2022-09-25T09:22:37.588Z,3.20
2022-09-25T09:25:19.696Z,3.38
2022-09-25T09:27:49.760Z,3.13
2022-09-25T09:30:21.797Z,3.65
2022-09-25T09:33:17.858Z,2.88
2022-09-25T09:36:12.471Z,3.72
2022-09-25T09:39:18.306Z,2.80
2022-09-25T09:42:09.239Z,2.33
2022-09-25T09:45:09.589Z,3.17
2022-09-25T09:47:48.519Z,3.10
2022-09-25T09:50:30.404Z,3.40
2022-09-25T09:53:03.672Z,3.45
2022-09-25T09:55:47.250Z,3.72
2022-09-25T09:58:41.604Z,3.20
2022-09-25T10:01:29.145Z,3.13
2022-09-25T10:04:22.782Z,2.83
2022-09-25T10:07:05.005Z,2.60
2022-09-25T10:09:32.402Z,3.15
2022-09-25T10:12:18.035Z,2.80
2022-09-25T10:14:47.415Z,3.28
2022-09-25T10:17:15.793Z,2.33
2022-09-25T10:19:51.549Z,3.00
2022-09-25T10:22:22.319Z,2.67
2022-09-25T10:25:02.044Z,3.45
2022-09-25T10:27:36.739Z,3.10
2022-09-25T10:30:09.920Z,3.05
2022-09-25T10:32:45.035Z,2.70
2022-09-25T10:35:24.226Z,2.72
2022-09-25T10:37:56.141Z,2.17
2022-09-25T10:40:25.930Z,2.35
2022-09-25T10:43:14.750Z,8.00
2022-09-25T10:45:41.748Z,2.25
2022-09-25T10:49:05.468Z,6.63
2022-09-25T10:51:32.458Z,2.90
2022-09-25T10:54:13.941Z,2.60
2022-09-25T10:56:42.506Z,2.85
2022-09-25T10:59:23.723Z,2.63
2022-09-25T11:01:53.168Z,2.30
2022-09-25T11:04:32.142Z,2.80
2022-09-25T11:07:05.001Z,2.72
2022-09-25T11:09:33.801Z,2.70
2022-09-25T11:12:13.862Z,2.72
2022-09-25T11:14:55.328Z,1.98
2022-09-25T11:17:38.299Z,2.42
2022-09-25T11:20:17.535Z,2.33
2022-09-25T11:22:59.375Z,2.42
2022-09-25T11:25:49.087Z,2.40
2022-09-25T11:28:37.716Z,2.20
2022-09-25T11:31:30.033Z,2.25
2022-09-25T11:34:10.124Z,2.00
2022-09-25T11:37:02.668Z,2.28
2022-09-25T11:40:03.715Z,2.45
2022-09-25T11:42:43.600Z,2.65
2022-09-25T11:45:36.805Z,2.70
2022-09-25T11:48:21.202Z,2.08
2022-09-25T11:51:11.223Z,1.90
2022-09-25T11:53:43.917Z,2.28
2022-09-25T11:56:25.916Z,2.20
2022-09-25T11:59:04.881Z,1.70
2022-09-25T12:01:52.679Z,1.88
2022-09-25T12:04:56.114Z,1.88
2022-09-25T12:07:41.250Z,1.30
2022-09-25T12:10:20.354Z,2.83
2022-09-25T12:13:01.575Z,1.58
2022-09-25T12:15:46.680Z,2.30
2022-09-25T12:18:40.317Z,1.88
2022-09-25T12:21:09.719Z,1.73
2022-09-25T12:23:42.913Z,1.92
2022-09-25T12:26:27.507Z,2.00
2022-09-25T12:29:12.886Z,1.80
2022-09-25T12:32:21.376Z,15.30
2022-09-25T12:35:11.134Z,47.95
2022-09-25T12:37:45.542Z,2.70
2022-09-25T12:40:21.853Z,1.95
2022-09-25T12:43:07.820Z,1.73
2022-09-25T12:45:49.788Z,1.50
2022-09-25T12:48:31.814Z,1.77
2022-09-25T12:51:15.644Z,1.65
2022-09-25T12:53:58.135Z,1.52
2022-09-25T12:56:49.537Z,1.83
2022-09-25T12:59:46.060Z,2.33
2022-09-25T13:02:26.087Z,14.57
2022-09-25T13:05:10.329Z,2.60
2022-09-25T13:07:37.136Z,4.65
2022-09-25T13:10:25.516Z,1.70
2022-09-25T13:12:55.689Z,1.77
2022-09-25T13:15:35.349Z,2.45
2022-09-25T13:18:04.835Z,1.98
2022-09-25T13:20:32.073Z,1.80
2022-09-25T13:23:09.444Z,1.48
2022-09-25T13:26:09.785Z,1.90
2022-09-25T13:28:48.519Z,1.67
2022-09-25T13:31:24.049Z,1.30
2022-09-25T13:34:01.492Z,1.17
2022-09-25T13:36:32.410Z,1.80
2022-09-25T13:39:21.645Z,1.80
2022-09-25T13:41:55.496Z,1.80
2022-09-25T13:44:43.744Z,1.65
2022-09-25T13:47:25.404Z,2.38
2022-09-25T13:49:53.648Z,1.30
2022-09-25T13:52:36.642Z,2.30
2022-09-25T13:55:22.134Z,1.40
2022-09-25T13:57:58.421Z,1.65
2022-09-25T14:00:50.482Z,1.63
2022-09-25T14:03:44.791Z,2.00
2022-09-25T14:08:48.801Z,1.85
2022-09-25T14:11:20.225Z,1.75
2022-09-25T14:13:52.033Z,1.88
2022-09-25T14:16:28.921Z,1.65
2022-09-25T14:18:58.264Z,2.05
2022-09-25T14:21:28.868Z,2.92
2022-09-25T14:23:57.888Z,2.22
2022-09-25T14:26:26.847Z,2.10
2022-09-25T14:28:56.371Z,2.00
2022-09-25T14:31:43.638Z,1.92
2022-09-25T14:34:41.557Z,1.90
2022-09-25T14:37:30.290Z,1.70
2022-09-25T14:40:16.157Z,3.00
2022-09-25T14:42:44.022Z,2.78
2022-09-25T14:45:35.745Z,2.65
2022-09-25T14:48:07.162Z,4.70
2022-09-25T14:50:44.540Z,2.75
2022-09-25T14:53:27.727Z,3.35
2022-09-25T14:55:56.435Z,1.80
2022-09-25T14:58:29.117Z,2.00
2022-09-25T15:00:58.992Z,2.33
2022-09-25T15:03:31.566Z,1.98
2022-09-25T15:06:02.271Z,2.63
2022-09-25T15:08:40.892Z,4.25
2022-09-25T15:11:17.040Z,3.50
2022-09-25T15:13:44.963Z,2.15
2022-09-25T15:16:38.475Z,4.30
2022-09-25T15:19:28.132Z,3.40
2022-09-25T15:21:55.490Z,18.40
2022-09-25T15:24:27.931Z,13.32
2022-09-25T15:27:03.736Z,6.05
2022-09-25T15:29:38.410Z,5.90
2022-09-25T15:32:05.946Z,6.15
2022-09-25T15:34:33.441Z,4.43
2022-09-25T15:37:21.054Z,2.83
2022-09-25T15:39:48.170Z,4.93
2022-09-25T15:42:15.245Z,7.95
2022-09-25T15:44:42.727Z,8.15
2022-09-25T15:47:35.275Z,15.18
2022-09-25T15:50:04.135Z,4.47
2022-09-25T15:52:35.900Z,5.10
2022-09-25T15:55:14.762Z,3.55
2022-09-25T15:57:42.254Z,3.10
2022-09-25T16:00:40.907Z,2.42
2022-09-25T16:03:32.490Z,11.35
2022-09-25T16:06:03.132Z,35.90
2022-09-25T16:08:32.712Z,11.40
2022-09-25T16:11:09.272Z,10.23
2022-09-25T16:13:43.538Z,8.38
2022-09-25T16:16:30.213Z,9.60
2022-09-25T16:18:59.635Z,6.70
2022-09-25T16:21:34.086Z,4.10
2022-09-25T16:24:03.694Z,5.53
2022-09-25T16:26:38.208Z,4.63
2022-09-25T16:29:05.130Z,30.05
2022-09-25T16:31:38.295Z,48.15
2022-09-25T16:34:09.272Z,13.13
2022-09-25T16:36:45.053Z,22.88
2022-09-25T16:39:23.927Z,6.60
2022-09-25T16:41:51.407Z,4.47
2022-09-25T16:44:30.124Z,3.13
2022-09-25T16:46:56.801Z,3.30
2022-09-25T16:49:24.958Z,4.07
2022-09-25T16:51:54.610Z,9.63
2022-09-25T16:54:31.681Z,3.10
2022-09-25T16:56:59.481Z,3.50
2022-09-25T16:59:28.366Z,4.35
2022-09-25T17:02:09.962Z,3.83
2022-09-25T17:04:40.077Z,4.10
2022-09-25T17:07:08.564Z,3.25
2022-09-25T17:09:35.372Z,7.18
2022-09-25T17:12:07.560Z,4.03
2022-09-25T17:14:36.734Z,4.93
2022-09-25T17:17:03.707Z,5.78
2022-09-25T17:19:30.667Z,6.85
2022-09-25T17:21:58.200Z,3.85
2022-09-25T17:24:27.729Z,4.32
2022-09-25T17:26:54.778Z,3.88
2022-09-25T17:29:22.334Z,3.97
2022-09-25T17:31:49.301Z,4.70
2022-09-25T17:34:28.610Z,5.55
2022-09-25T17:36:55.964Z,4.03
2022-09-25T17:39:22.691Z,3.53
2022-09-25T17:41:49.905Z,4.22
2022-09-25T17:44:24.554Z,3.13
2022-09-25T17:46:52.039Z,3.60
2022-09-25T17:49:18.951Z,3.50
2022-09-25T17:51:45.942Z,4.82
2022-09-25T17:54:13.474Z,3.45
2022-09-25T17:56:42.652Z,3.80
2022-09-25T17:59:10.055Z,3.75
2022-09-25T18:01:39.761Z,4.57
2022-09-25T18:04:21.324Z,8.27
2022-09-25T18:06:49.134Z,5.88
2022-09-25T18:09:16.164Z,3.58
2022-09-25T18:11:43.748Z,4.40
2022-09-25T18:14:15.523Z,3.30
2022-09-25T18:16:44.111Z,3.15
2022-09-25T18:19:34.581Z,2.92
2022-09-25T18:22:21.890Z,3.22
2022-09-25T18:24:56.742Z,3.47
2022-09-25T18:27:26.790Z,6.97
2022-09-25T18:29:54.005Z,3.78
2022-09-25T18:32:21.555Z,3.75
2022-09-25T18:34:48.282Z,3.38
2022-09-25T18:37:15.023Z,4.40
2022-09-25T18:39:41.876Z,3.72
2022-09-25T18:42:08.749Z,3.92
2022-09-25T18:44:42.240Z,3.38
2022-09-25T18:47:09.265Z,3.42
2022-09-25T18:49:38.416Z,3.47
2022-09-25T18:52:05.916Z,3.22
2022-09-25T18:54:32.779Z,3.50
2022-09-25T18:57:00.196Z,3.67
2022-09-25T18:59:27.015Z,4.75
2022-09-25T19:01:58.001Z,4.03
2022-09-25T19:04:25.932Z,3.53
2022-09-25T19:06:52.991Z,6.93
2022-09-25T19:09:28.151Z,5.57
2022-09-25T19:11:55.454Z,4.53
2022-09-25T19:14:24.111Z,4.32
2022-09-25T19:16:53.832Z,5.15
2022-09-25T19:19:21.061Z,3.20
2022-09-25T19:21:47.985Z,3.70
2022-09-25T19:24:15.345Z,3.80
2022-09-25T19:26:42.867Z,3.53
2022-09-25T19:29:10.072Z,3.28
2022-09-25T19:31:37.203Z,3.28
2022-09-25T19:34:04.893Z,4.70
2022-09-25T19:36:34.115Z,5.18
2022-09-25T19:39:01.989Z,4.07
2022-09-25T19:41:31.393Z,4.10
2022-09-25T19:44:05.773Z,4.22
2022-09-25T19:46:35.227Z,4.03
2022-09-25T19:49:02.383Z,4.32
2022-09-25T19:51:29.538Z,4.28
2022-09-25T19:53:56.278Z,3.60
2022-09-25T19:56:23.149Z,5.57
2022-09-25T19:58:51.223Z,4.60
2022-09-25T20:01:21.580Z,4.60
2022-09-25T20:03:48.676Z,4.43
2022-09-25T20:06:17.541Z,4.30
2022-09-25T20:08:44.744Z,3.85
2022-09-25T20:11:23.225Z,4.20
2022-09-25T20:13:52.077Z,3.60
2022-09-25T20:16:21.261Z,4.00
2022-09-25T20:19:00.226Z,3.80
2022-09-25T20:21:30.286Z,3.53
2022-09-25T20:23:58.827Z,3.95
2022-09-25T20:26:27.478Z,7.40
2022-09-25T20:29:08.690Z,4.65
2022-09-25T20:31:37.070Z,7.40
2022-09-25T20:34:05.749Z,5.60
2022-09-25T20:36:33.726Z,6.15
2022-09-25T20:39:01.045Z,7.40
2022-09-25T20:41:27.869Z,7.03
2022-09-25T20:43:59.831Z,6.13
2022-09-25T20:46:27.536Z,5.15
2022-09-25T20:48:57.701Z,5.05
2022-09-25T20:51:27.512Z,5.70
2022-09-25T20:54:02.083Z,5.55
2022-09-25T20:56:31.893Z,6.00
2022-09-25T20:59:00.267Z,5.57
2022-09-25T21:01:30.100Z,5.25
2022-09-25T21:04:00.909Z,7.65
2022-09-25T21:06:30.247Z,7.07
2022-09-25T21:09:01.131Z,7.22
2022-09-25T21:11:32.516Z,6.82
2022-09-25T21:14:02.756Z,6.75
2022-09-25T21:16:31.589Z,11.35
2022-09-25T21:19:04.260Z,10.13
2022-09-25T21:21:32.655Z,8.48
2022-09-25T21:23:59.714Z,8.05
2022-09-25T21:26:30.064Z,8.40
2022-09-25T21:29:02.498Z,6.40
2022-09-25T21:31:36.763Z,6.78
2022-09-25T21:34:04.957Z,6.57
2022-09-25T21:36:33.987Z,7.68
2022-09-25T21:39:01.168Z,6.03
2022-09-25T21:41:29.896Z,6.05
2022-09-25T21:44:06.680Z,6.15
2022-09-25T21:46:35.151Z,6.20
2022-09-25T21:49:04.327Z,5.78
2022-09-25T21:51:43.445Z,5.40
2022-09-25T21:54:11.600Z,5.07
2022-09-25T21:56:38.875Z,6.18
2022-09-25T21:59:09.095Z,5.43
2022-09-25T22:01:38.674Z,5.70
2022-09-25T22:04:10.376Z,6.50
2022-09-25T22:06:42.464Z,5.85
2022-09-25T22:09:16.845Z,6.78
2022-09-25T22:11:45.702Z,6.38
2022-09-25T22:14:16.032Z,6.85
2022-09-25T22:16:45.120Z,6.30
2022-09-25T22:19:13.518Z,6.10
2022-09-25T22:21:41.891Z,6.57
2022-09-25T22:24:09.060Z,5.93
2022-09-25T22:26:39.959Z,6.03
2022-09-25T22:29:07.398Z,6.15
2022-09-25T22:31:35.990Z,6.32
2022-09-25T22:34:06.993Z,7.43
2022-09-25T22:36:38.461Z,6.28
2022-09-25T22:39:05.963Z,5.97
2022-09-25T22:41:33.430Z,6.43
2022-09-25T22:44:01.117Z,6.00
2022-09-25T22:46:28.727Z,6.50
2022-09-25T22:48:56.332Z,6.22
2022-09-25T22:51:25.269Z,6.53
2022-09-25T22:53:53.703Z,7.20
2022-09-25T22:56:24.737Z,6.20
2022-09-25T22:58:57.383Z,6.78
2022-09-25T23:01:26.575Z,6.10
2022-09-25T23:03:58.665Z,6.22
2022-09-25T23:06:27.417Z,7.43
2022-09-25T23:09:03.023Z,6.80
2022-09-25T23:11:29.828Z,6.75
2022-09-25T23:14:06.197Z,6.35
2022-09-25T23:16:34.315Z,6.30
2022-09-25T23:19:01.850Z,7.22
2022-09-25T23:21:30.342Z,6.85
2022-09-25T23:24:02.922Z,6.80
2022-09-25T23:26:30.192Z,5.78
2022-09-25T23:29:00.056Z,6.75
2022-09-25T23:31:26.861Z,6.18
2022-09-25T23:33:53.823Z,6.45
2022-09-25T23:36:23.245Z,5.80
2022-09-25T23:38:52.289Z,6.15
2022-09-25T23:41:22.400Z,5.68
2022-09-25T23:43:50.783Z,5.50
2022-09-25T23:46:19.632Z,6.30
2022-09-25T23:48:47.131Z,7.00
2022-09-25T23:51:15.666Z,6.25
2022-09-25T23:53:43.320Z,6.45
2022-09-25T23:56:22.781Z,6.25
2022-09-25T23:58:50.590Z,6.03
